createdAt,value
2017-06-05T00:01:21.564Z,5.43
2017-06-05T00:03:51.408Z,8.80
2017-06-05T00:06:21.342Z,4.63
2017-06-05T00:08:51.183Z,4.83
2017-06-05T00:11:21.080Z,5.13
2017-06-05T00:13:50.910Z,4.80
2017-06-05T00:16:20.752Z,4.70
2017-06-05T00:18:50.615Z,4.70
2017-06-05T00:21:20.494Z,6.57
2017-06-05T00:23:50.354Z,3.83
2017-06-05T00:26:20.350Z,5.10
2017-06-05T00:28:53.347Z,4.63
2017-06-05T00:31:23.182Z,4.20
2017-06-05T00:33:53.053Z,4.50
2017-06-05T00:36:22.963Z,5.93
2017-06-05T00:38:52.882Z,4.40
2017-06-05T00:41:22.721Z,5.00
2017-06-05T00:43:52.558Z,4.83
2017-06-05T00:46:22.446Z,4.87
2017-06-05T00:48:52.280Z,5.17
2017-06-05T00:51:22.156Z,6.20
2017-06-05T00:53:52.048Z,5.10
2017-06-05T00:56:21.908Z,4.63
2017-06-05T00:58:51.751Z,6.30
2017-06-05T01:01:21.662Z,5.50
2017-06-05T01:03:51.539Z,7.00
2017-06-05T01:06:21.383Z,5.23
2017-06-05T01:08:51.253Z,5.03
2017-06-05T01:11:21.094Z,4.93
2017-06-05T01:13:51.887Z,7.40
2017-06-05T01:16:21.733Z,6.70
2017-06-05T01:18:51.643Z,5.03
2017-06-05T01:21:21.482Z,5.13
2017-06-05T01:23:51.371Z,5.73
2017-06-05T01:26:21.249Z,5.70
2017-06-05T01:28:51.091Z,6.30
2017-06-05T01:31:20.959Z,5.23
2017-06-05T01:33:50.814Z,5.10
2017-06-05T01:36:20.734Z,5.73
2017-06-05T01:38:50.600Z,6.70
2017-06-05T01:41:20.543Z,5.30
2017-06-05T01:43:50.374Z,5.60
2017-06-05T01:46:20.342Z,5.70
2017-06-05T01:48:50.209Z,8.57
2017-06-05T01:51:20.110Z,5.23
2017-06-05T01:53:49.960Z,8.77
2017-06-05T01:56:19.860Z,7.83
2017-06-05T01:58:49.754Z,5.60
2017-06-05T02:01:19.691Z,8.67
2017-06-05T02:03:49.549Z,6.53
2017-06-05T02:06:19.489Z,6.20
2017-06-05T02:08:49.350Z,7.53
2017-06-05T02:11:19.343Z,8.63
2017-06-05T02:13:49.237Z,6.40
2017-06-05T02:16:19.153Z,6.90
2017-06-05T02:18:49.019Z,6.13
2017-06-05T02:21:18.857Z,7.33
2017-06-05T02:23:48.739Z,7.20
2017-06-05T02:26:18.595Z,6.67
2017-06-05T02:28:48.476Z,7.20
2017-06-05T02:31:18.314Z,6.60
2017-06-05T02:33:48.199Z,6.37
2017-06-05T02:36:18.038Z,7.47
2017-06-05T02:38:47.905Z,6.50
2017-06-05T02:41:17.790Z,7.07
2017-06-05T02:43:47.657Z,7.10
2017-06-05T02:46:17.520Z,7.00
2017-06-05T02:48:47.361Z,8.13
2017-06-05T02:51:16.922Z,7.57
2017-06-05T02:53:46.756Z,9.07
2017-06-05T02:56:16.644Z,8.83
2017-06-05T02:58:46.563Z,8.93
2017-06-05T03:01:16.406Z,9.83
2017-06-05T03:03:46.268Z,8.20
2017-06-05T03:06:16.130Z,11.13
2017-06-05T03:08:46.061Z,9.30
2017-06-05T03:11:15.910Z,9.40
2017-06-05T03:13:45.775Z,8.37
2017-06-05T03:16:15.635Z,8.87
2017-06-05T03:18:45.476Z,8.70
2017-06-05T03:21:15.350Z,9.10
2017-06-05T03:23:45.184Z,9.03
2017-06-05T03:26:15.086Z,9.00
2017-06-05T03:28:44.935Z,9.77
2017-06-05T03:31:14.798Z,8.30
2017-06-05T03:33:44.659Z,8.57
2017-06-05T03:36:14.500Z,7.80
2017-06-05T03:38:44.357Z,8.43
2017-06-05T03:41:14.573Z,8.30
2017-06-05T03:43:44.467Z,8.53
2017-06-05T03:46:14.327Z,8.37
2017-06-05T03:48:44.195Z,8.90
2017-06-05T03:51:14.069Z,8.93
2017-06-05T03:53:43.944Z,8.93
2017-06-05T03:56:13.840Z,8.17
2017-06-05T03:58:43.768Z,8.70
2017-06-05T04:01:13.659Z,8.50
2017-06-05T04:03:43.493Z,9.23
2017-06-05T04:06:13.330Z,7.23
2017-06-05T04:08:43.228Z,10.33
2017-06-05T04:11:13.086Z,8.60
2017-06-05T04:13:42.943Z,8.77
2017-06-05T04:16:12.784Z,7.33
2017-06-05T04:18:42.651Z,7.83
2017-06-05T04:21:12.497Z,8.03
2017-06-05T04:23:42.442Z,9.70
2017-06-05T04:26:12.280Z,8.53
2017-06-05T04:28:42.125Z,8.43
2017-06-05T04:31:11.978Z,8.80
2017-06-05T04:33:41.819Z,7.60
2017-06-05T04:36:11.680Z,9.50
2017-06-05T04:38:41.527Z,7.40
2017-06-05T04:41:11.419Z,8.10
2017-06-05T04:43:41.285Z,8.07
2017-06-05T04:46:11.169Z,9.00
2017-06-05T04:48:41.145Z,6.50
2017-06-05T04:51:12.059Z,8.40
2017-06-05T04:53:41.928Z,6.87
2017-06-05T04:56:11.813Z,6.77
2017-06-05T04:58:41.699Z,6.93
2017-06-05T05:01:11.538Z,7.77
2017-06-05T05:03:41.400Z,6.93
2017-06-05T05:06:11.265Z,8.17
2017-06-05T05:08:41.104Z,7.07
2017-06-05T05:11:11.043Z,7.97
2017-06-05T05:13:40.882Z,7.90
2017-06-05T05:16:10.768Z,8.77
2017-06-05T05:18:40.605Z,7.73
2017-06-05T05:21:10.453Z,7.90
2017-06-05T05:23:40.331Z,7.20
2017-06-05T05:26:10.531Z,7.07
2017-06-05T05:28:40.417Z,7.13
2017-06-05T05:31:10.255Z,8.43
2017-06-05T05:33:40.161Z,10.63
2017-06-05T05:36:10.027Z,6.80
2017-06-05T05:38:39.866Z,7.00
2017-06-05T05:41:09.730Z,7.47
2017-06-05T05:43:39.588Z,7.53
2017-06-05T05:46:09.460Z,7.90
2017-06-05T05:48:39.316Z,6.57
2017-06-05T05:51:09.218Z,6.63
2017-06-05T05:53:39.078Z,7.87
2017-06-05T05:56:08.962Z,8.17
2017-06-05T05:58:39.778Z,7.53
2017-06-05T06:01:09.621Z,7.50
2017-06-05T06:03:39.490Z,7.27
2017-06-05T06:06:09.338Z,9.63
2017-06-05T06:08:39.232Z,7.90
2017-06-05T06:11:09.071Z,7.20
2017-06-05T06:13:38.922Z,7.27
2017-06-05T06:16:08.462Z,7.83
2017-06-05T06:18:38.327Z,9.90
2017-06-05T06:21:08.195Z,8.27
2017-06-05T06:23:38.035Z,8.30
2017-06-05T06:26:07.908Z,8.17
2017-06-05T06:28:37.778Z,8.67
2017-06-05T06:31:07.613Z,6.97
2017-06-05T06:33:37.545Z,7.93
2017-06-05T06:36:07.386Z,7.57
2017-06-05T06:38:37.271Z,7.43
2017-06-05T06:41:07.112Z,6.87
2017-06-05T06:43:36.994Z,6.17
2017-06-05T06:46:06.849Z,6.93
2017-06-05T06:48:36.681Z,13.70
2017-06-05T06:51:06.542Z,7.30
2017-06-05T06:53:36.397Z,7.83
2017-06-05T06:56:06.270Z,9.00
2017-06-05T06:58:36.146Z,6.17
2017-06-05T07:01:06.000Z,8.53
2017-06-05T07:03:35.861Z,7.70
2017-06-05T07:06:05.691Z,8.23
2017-06-05T07:08:35.556Z,7.50
2017-06-05T07:11:05.394Z,8.17
2017-06-05T07:13:35.306Z,8.10
2017-06-05T07:16:05.150Z,7.17
2017-06-05T07:18:35.090Z,6.33
2017-06-05T07:21:04.941Z,6.60
2017-06-05T07:23:34.802Z,8.00
2017-06-05T07:26:04.668Z,8.90
2017-06-05T07:28:34.508Z,7.33
2017-06-05T07:31:04.383Z,7.53
2017-06-05T07:33:34.218Z,8.40
2017-06-05T07:36:04.122Z,8.37
2017-06-05T07:38:33.963Z,7.90
2017-06-05T07:41:03.827Z,7.97
2017-06-05T07:43:33.714Z,7.20
2017-06-05T07:46:03.545Z,8.13
2017-06-05T07:48:33.424Z,7.90
2017-06-05T07:51:03.261Z,8.07
2017-06-05T07:53:33.283Z,8.60
2017-06-05T07:56:03.119Z,7.50
2017-06-05T07:58:32.990Z,7.40
2017-06-05T08:01:02.766Z,6.60
2017-06-05T08:03:32.426Z,7.90
2017-06-05T08:06:02.323Z,6.80
2017-06-05T08:08:32.168Z,7.70
2017-06-05T08:11:02.053Z,7.20
2017-06-05T08:13:31.930Z,7.90
2017-06-05T08:16:01.815Z,7.87
2017-06-05T08:18:31.678Z,8.23
2017-06-05T08:21:01.513Z,7.30
2017-06-05T08:23:31.378Z,7.93
2017-06-05T08:26:01.287Z,7.23
2017-06-05T08:28:31.229Z,8.10
2017-06-05T08:31:01.099Z,7.37
2017-06-05T08:33:30.946Z,8.63
2017-06-05T08:36:00.811Z,6.90
2017-06-05T08:38:30.654Z,8.50
2017-06-05T08:41:00.523Z,7.30
2017-06-05T08:43:30.478Z,7.10
2017-06-05T08:46:00.398Z,6.83
2017-06-05T08:48:30.242Z,6.20
2017-06-05T08:51:00.259Z,6.30
2017-06-05T08:53:30.161Z,7.93
2017-06-05T08:56:00.032Z,6.73
2017-06-05T08:58:29.885Z,6.77
2017-06-05T09:00:59.732Z,7.03
2017-06-05T09:03:29.602Z,6.97
2017-06-05T09:06:00.487Z,6.17
2017-06-05T09:08:30.359Z,7.20
2017-06-05T09:11:00.203Z,8.37
2017-06-05T09:13:30.058Z,7.50
2017-06-05T09:15:59.901Z,8.10
2017-06-05T09:18:29.874Z,8.30
2017-06-05T09:20:59.550Z,8.70
2017-06-05T09:23:29.240Z,6.40
2017-06-05T09:26:04.514Z,7.43
2017-06-05T09:28:34.196Z,8.87
2017-06-05T09:31:04.048Z,8.23
2017-06-05T09:33:33.919Z,6.17
2017-06-05T09:36:03.750Z,7.67
2017-06-05T09:38:33.654Z,7.00
2017-06-05T09:41:03.493Z,7.30
2017-06-05T09:43:33.379Z,8.30
2017-06-05T09:46:03.211Z,7.23
2017-06-05T09:48:33.060Z,9.40
2017-06-05T09:51:02.917Z,8.67
2017-06-05T09:53:32.753Z,7.03
2017-06-05T09:56:02.612Z,9.00
2017-06-05T09:58:32.456Z,7.00
2017-06-05T10:01:02.318Z,10.47
2017-06-05T10:03:32.165Z,6.20
2017-06-05T10:06:02.048Z,7.50
2017-06-05T10:08:31.907Z,6.63
2017-06-05T10:11:01.774Z,6.57
2017-06-05T10:13:31.628Z,10.00
2017-06-05T10:16:01.488Z,6.30
2017-06-05T10:18:31.332Z,6.80
2017-06-05T10:21:01.198Z,7.60
2017-06-05T10:23:31.099Z,6.10
2017-06-05T10:26:00.974Z,6.73
2017-06-05T10:28:30.844Z,7.87
2017-06-05T10:31:00.702Z,7.50
2017-06-05T10:33:30.556Z,8.17
2017-06-05T10:36:00.389Z,9.43
2017-06-05T10:38:30.251Z,6.77
2017-06-05T10:41:00.216Z,9.87
2017-06-05T10:43:30.107Z,8.17
2017-06-05T10:45:59.945Z,7.17
2017-06-05T10:48:29.915Z,4.70
2017-06-05T10:50:59.782Z,7.17
2017-06-05T10:53:29.666Z,6.30
2017-06-05T10:55:59.522Z,6.30
2017-06-05T10:58:29.401Z,5.70
2017-06-05T11:00:59.244Z,6.93
2017-06-05T11:03:29.153Z,13.90
2017-06-05T11:05:58.985Z,10.20
2017-06-05T11:08:28.836Z,8.70
2017-06-05T11:10:58.728Z,12.33
2017-06-05T11:13:28.574Z,7.03
2017-06-05T11:15:58.436Z,12.43
2017-06-05T11:18:28.291Z,32.60
2017-06-05T11:20:58.155Z,9.43
2017-06-05T11:23:28.006Z,7.83
2017-06-05T11:25:57.877Z,7.27
2017-06-05T11:28:27.708Z,6.60
2017-06-05T11:30:59.187Z,7.53
2017-06-05T11:33:29.025Z,6.50
2017-06-05T11:35:58.937Z,6.27
2017-06-05T11:38:28.817Z,6.43
2017-06-05T11:40:58.662Z,5.80
2017-06-05T11:43:29.497Z,7.03
2017-06-05T11:45:59.339Z,5.50
2017-06-05T11:48:29.200Z,4.73
2017-06-05T11:50:59.038Z,5.50
2017-06-05T11:53:28.923Z,5.57
2017-06-05T11:55:58.785Z,6.10
2017-06-05T11:58:28.653Z,6.13
2017-06-05T12:00:58.489Z,6.90
2017-06-05T12:03:28.365Z,4.53
2017-06-05T12:05:58.193Z,7.33
2017-06-05T12:08:28.048Z,6.00
2017-06-05T12:10:57.888Z,6.20
2017-06-05T12:13:27.737Z,5.07
2017-06-05T12:15:57.588Z,6.63
2017-06-05T12:18:27.452Z,5.60
2017-06-05T12:20:57.285Z,6.20
2017-06-05T12:23:27.186Z,7.27
2017-06-05T12:25:57.038Z,6.27
2017-06-05T12:28:26.874Z,6.33
2017-06-05T12:30:56.731Z,6.27
2017-06-05T12:33:26.584Z,9.17
2017-06-05T12:35:56.491Z,5.10
2017-06-05T12:38:26.329Z,6.87
2017-06-05T12:40:56.215Z,6.27
2017-06-05T12:43:26.067Z,9.03
2017-06-05T12:45:55.963Z,7.17
2017-06-05T12:48:25.809Z,5.87
2017-06-05T12:50:55.683Z,6.70
2017-06-05T12:53:25.522Z,6.80
2017-06-05T12:55:55.415Z,5.73
2017-06-05T12:58:25.246Z,7.13
2017-06-05T13:00:55.107Z,6.77
2017-06-05T13:03:24.951Z,6.37
2017-06-05T13:05:54.835Z,5.73
2017-06-05T13:08:24.701Z,7.00
2017-06-05T13:10:54.586Z,6.50
2017-06-05T13:13:24.427Z,5.37
2017-06-05T13:15:54.302Z,6.30
2017-06-05T13:18:24.152Z,6.27
2017-06-05T13:20:54.054Z,7.10
2017-06-05T13:23:23.896Z,5.80
2017-06-05T13:25:53.785Z,6.37
2017-06-05T13:28:23.707Z,6.70
2017-06-05T13:30:53.588Z,5.97
2017-06-05T13:33:23.468Z,6.73
2017-06-05T13:35:53.302Z,6.40
2017-06-05T13:38:23.171Z,5.77
2017-06-05T13:40:53.041Z,6.03
2017-06-05T13:43:23.314Z,6.73
2017-06-05T13:45:52.973Z,10.10
2017-06-05T13:48:22.856Z,7.40
2017-06-05T13:50:52.697Z,10.37
2017-06-05T13:53:22.563Z,10.67
2017-06-05T13:55:52.424Z,14.53
2017-06-05T13:58:22.332Z,33.53
2017-06-05T14:00:52.213Z,17.17
2017-06-05T14:03:22.132Z,14.90
2017-06-05T14:05:51.994Z,61.13
2017-06-05T14:08:21.882Z,30.77
2017-06-05T14:10:54.618Z,19.20
2017-06-05T14:13:25.298Z,49.60
2017-06-05T14:15:56.009Z,40.90
2017-06-05T14:18:25.914Z,56.63
2017-06-05T14:20:55.775Z,29.60
2017-06-05T14:23:25.621Z,14.73
2017-06-05T14:25:55.504Z,7.67
2017-06-05T14:28:25.347Z,8.20
2017-06-05T14:30:55.214Z,6.77
2017-06-05T14:33:25.044Z,9.20
2017-06-05T14:35:54.900Z,5.73
2017-06-05T14:38:24.740Z,4.90
2017-06-05T14:40:54.609Z,4.43
2017-06-05T14:43:24.444Z,3.10
2017-06-05T14:45:54.378Z,2.70
2017-06-05T14:48:24.251Z,2.60
2017-06-05T14:50:54.086Z,1.90
2017-06-05T14:53:23.953Z,2.30
2017-06-05T14:55:53.812Z,3.47
2017-06-05T14:58:23.718Z,2.17
2017-06-05T15:00:53.554Z,1.83
2017-06-05T15:03:23.423Z,5.03
2017-06-05T15:05:53.255Z,4.90
2017-06-05T15:08:23.125Z,2.10
2017-06-05T15:10:52.959Z,2.10
2017-06-05T15:13:22.846Z,2.00
2017-06-05T15:15:52.698Z,1.90
2017-06-05T15:18:25.078Z,3.17
2017-06-05T15:20:54.934Z,3.13
2017-06-05T15:23:24.824Z,1.73
2017-06-05T15:25:54.686Z,1.60
2017-06-05T15:28:24.620Z,1.63
2017-06-05T15:30:54.520Z,1.60
2017-06-05T15:33:24.355Z,1.43
2017-06-05T15:35:54.278Z,1.90
2017-06-05T15:38:24.138Z,1.53
2017-06-05T15:40:53.989Z,1.40
2017-06-05T15:43:23.859Z,1.50
2017-06-05T15:45:53.693Z,1.50
2017-06-05T15:48:23.672Z,1.30
2017-06-05T15:50:53.501Z,1.63
2017-06-05T15:53:23.421Z,1.47
2017-06-05T15:55:53.470Z,1.30
2017-06-05T15:58:23.370Z,1.50
2017-06-05T16:00:54.246Z,1.53
2017-06-05T16:03:24.133Z,1.43
2017-06-05T16:05:54.006Z,2.00
2017-06-05T16:08:23.871Z,1.50
2017-06-05T16:10:56.647Z,1.47
2017-06-05T16:13:26.509Z,1.70
2017-06-05T16:15:56.374Z,1.83
2017-06-05T16:18:26.208Z,1.73
2017-06-05T16:20:56.074Z,2.30
2017-06-05T16:23:25.403Z,2.30
2017-06-05T16:25:55.287Z,2.80
2017-06-05T16:28:25.118Z,2.80
2017-06-05T16:30:54.986Z,3.10
2017-06-05T16:33:24.514Z,3.20
2017-06-05T16:35:54.358Z,2.67
2017-06-05T16:38:24.254Z,3.17
2017-06-05T16:40:54.096Z,3.17
2017-06-05T16:43:24.247Z,2.70
2017-06-05T16:45:55.849Z,3.00
2017-06-05T16:48:25.737Z,2.87
2017-06-05T16:50:55.597Z,2.80
2017-06-05T16:53:25.494Z,3.47
2017-06-05T16:55:55.482Z,3.13
2017-06-05T16:58:25.325Z,4.20
2017-06-05T17:00:55.181Z,2.67
2017-06-05T17:03:25.026Z,2.53
2017-06-05T17:05:54.898Z,2.60
2017-06-05T17:08:25.735Z,2.63
2017-06-05T17:10:55.609Z,3.23
2017-06-05T17:13:25.449Z,2.57
2017-06-05T17:15:55.352Z,2.73
2017-06-05T17:18:25.190Z,2.60
2017-06-05T17:20:55.037Z,2.40
2017-06-05T17:23:24.894Z,3.13
2017-06-05T17:25:54.738Z,2.73
2017-06-05T17:28:24.637Z,2.73
2017-06-05T17:30:54.479Z,2.73
2017-06-05T17:33:24.362Z,4.30
2017-06-05T17:35:54.202Z,2.50
2017-06-05T17:38:24.107Z,2.27
2017-06-05T17:40:53.950Z,2.60
2017-06-05T17:43:23.808Z,3.53
2017-06-05T17:45:53.482Z,2.80
2017-06-05T17:48:23.315Z,2.77
2017-06-05T17:50:53.637Z,2.70
2017-06-05T17:53:26.760Z,2.67
2017-06-05T17:55:56.672Z,2.40
2017-06-05T17:58:26.530Z,2.30
2017-06-05T18:00:56.374Z,2.83
2017-06-05T18:03:26.312Z,2.50
2017-06-05T18:05:56.505Z,2.40
2017-06-05T18:08:26.520Z,2.10
2017-06-05T18:10:56.379Z,3.37
2017-06-05T18:13:26.292Z,2.70
2017-06-05T18:15:56.125Z,2.40
2017-06-05T18:18:26.023Z,2.80
2017-06-05T18:20:55.855Z,2.50
2017-06-05T18:23:25.795Z,2.77
2017-06-05T18:25:55.665Z,2.80
2017-06-05T18:28:25.505Z,2.90
2017-06-05T18:30:55.410Z,3.20
2017-06-05T18:33:25.247Z,3.40
2017-06-05T18:35:55.129Z,3.10
2017-06-05T18:38:24.975Z,3.23
2017-06-05T18:40:54.816Z,3.37
2017-06-05T18:43:24.743Z,3.20
2017-06-05T18:45:54.600Z,3.60
2017-06-05T18:48:24.563Z,3.90
2017-06-05T18:50:54.406Z,3.83
2017-06-05T18:53:25.298Z,3.60
2017-06-05T18:55:55.553Z,5.40
2017-06-05T18:58:25.432Z,4.47
2017-06-05T19:00:55.271Z,3.67
2017-06-05T19:03:25.108Z,3.80
2017-06-05T19:05:54.981Z,4.67
2017-06-05T19:08:24.826Z,4.60
2017-06-05T19:10:54.695Z,3.43
2017-06-05T19:13:24.527Z,3.47
2017-06-05T19:15:54.413Z,4.10
2017-06-05T19:18:24.252Z,3.90
2017-06-05T19:20:54.102Z,4.77
2017-06-05T19:23:23.966Z,4.73
2017-06-05T19:25:53.796Z,5.97
2017-06-05T19:28:23.676Z,5.10
2017-06-05T19:30:53.545Z,4.50
2017-06-05T19:33:23.411Z,5.50
2017-06-05T19:35:53.253Z,4.83
2017-06-05T19:38:23.231Z,4.53
2017-06-05T19:40:53.102Z,6.50
2017-06-05T19:43:22.938Z,5.60
2017-06-05T19:45:52.829Z,5.10
2017-06-05T19:48:22.657Z,4.90
2017-06-05T19:50:52.519Z,5.40
2017-06-05T19:53:22.363Z,4.60
2017-06-05T19:55:52.247Z,4.10
2017-06-05T19:58:22.128Z,4.70
2017-06-05T20:00:52.014Z,5.07
2017-06-05T20:03:21.917Z,7.27
2017-06-05T20:05:51.781Z,4.40
2017-06-05T20:08:21.711Z,4.80
2017-06-05T20:10:51.578Z,4.60
2017-06-05T20:13:21.458Z,4.90
2017-06-05T20:15:51.426Z,5.20
2017-06-05T20:18:21.309Z,5.47
2017-06-05T20:20:51.216Z,5.93
2017-06-05T20:23:21.059Z,5.93
2017-06-05T20:25:50.951Z,6.20
2017-06-05T20:28:20.798Z,5.67
2017-06-05T20:30:50.742Z,5.97
2017-06-05T20:33:21.563Z,5.70
2017-06-05T20:35:51.475Z,6.50
2017-06-05T20:38:21.323Z,6.17
2017-06-05T20:40:50.986Z,6.70
2017-06-05T20:43:20.841Z,6.13
2017-06-05T20:45:50.731Z,5.80
2017-06-05T20:48:20.632Z,6.37
2017-06-05T20:50:50.583Z,5.90
2017-06-05T20:53:20.466Z,5.83
2017-06-05T20:55:50.314Z,6.00
2017-06-05T20:58:20.189Z,6.13
2017-06-05T21:00:50.050Z,6.53
2017-06-05T21:03:19.932Z,6.63
2017-06-05T21:05:49.774Z,6.40
2017-06-05T21:08:19.657Z,6.23
2017-06-05T21:10:49.577Z,6.20
2017-06-05T21:13:19.441Z,6.57
2017-06-05T21:15:49.270Z,7.17
2017-06-05T21:18:19.153Z,6.03
2017-06-05T21:20:48.993Z,6.57
2017-06-05T21:23:18.885Z,6.53
2017-06-05T21:25:48.762Z,7.17
2017-06-05T21:28:18.646Z,7.00
2017-06-05T21:30:48.508Z,7.50
2017-06-05T21:33:18.479Z,6.70
2017-06-05T21:35:48.335Z,7.23
2017-06-05T21:38:18.205Z,8.23
2017-06-05T21:40:48.074Z,8.30
2017-06-05T21:43:17.915Z,7.47
2017-06-05T21:45:48.766Z,7.33
2017-06-05T21:48:18.725Z,7.23
2017-06-05T21:50:48.643Z,8.03
2017-06-05T21:53:18.490Z,6.90
2017-06-05T21:55:48.349Z,7.50
2017-06-05T21:58:18.203Z,6.60
2017-06-05T22:00:48.065Z,7.80
2017-06-05T22:03:18.010Z,7.13
2017-06-05T22:05:47.899Z,7.13
2017-06-05T22:08:17.766Z,7.07
2017-06-05T22:10:47.604Z,7.13
2017-06-05T22:13:17.466Z,6.77
2017-06-05T22:15:47.311Z,6.00
2017-06-05T22:18:17.178Z,7.17
2017-06-05T22:20:47.049Z,5.93
2017-06-05T22:23:16.947Z,6.20
2017-06-05T22:25:46.803Z,6.90
2017-06-05T22:28:16.662Z,6.23
2017-06-05T22:30:46.503Z,6.60
2017-06-05T22:33:16.402Z,7.20
2017-06-05T22:35:46.245Z,6.30
2017-06-05T22:38:16.107Z,6.67
2017-06-05T22:40:45.953Z,6.67
2017-06-05T22:43:15.828Z,6.10
2017-06-05T22:45:45.684Z,6.33
2017-06-05T22:48:15.586Z,7.43
2017-06-05T22:50:45.428Z,6.43
2017-06-05T22:53:15.270Z,7.00
2017-06-05T22:55:45.121Z,6.40
2017-06-05T22:58:14.958Z,5.77
2017-06-05T23:00:44.853Z,6.97
2017-06-05T23:03:14.807Z,7.50
2017-06-05T23:05:44.702Z,6.97
2017-06-05T23:08:14.539Z,6.30
2017-06-05T23:10:44.451Z,7.67
2017-06-05T23:13:14.339Z,7.10
2017-06-05T23:15:44.193Z,6.73
2017-06-05T23:18:14.083Z,7.20
2017-06-05T23:20:43.969Z,6.97
2017-06-05T23:23:13.793Z,6.80
2017-06-05T23:25:43.718Z,6.53
2017-06-05T23:28:13.561Z,6.80
2017-06-05T23:30:43.462Z,6.43
2017-06-05T23:33:13.286Z,7.57
2017-06-05T23:35:43.216Z,6.97
2017-06-05T23:38:13.057Z,6.47
2017-06-05T23:40:42.925Z,6.83
2017-06-05T23:43:12.785Z,6.60
2017-06-05T23:45:42.645Z,7.23
2017-06-05T23:48:12.554Z,7.30
2017-06-05T23:50:42.420Z,6.73
2017-06-05T23:53:12.277Z,6.90
2017-06-05T23:55:42.114Z,7.97
2017-06-05T23:58:11.984Z,7.67
